Aviation Digital Data Service (ADDS)

Output produced by METARs form (1630 UTC 19 October 2017)
found at http://aviationweather.gov/adds/metars/
 
KEWN 191133Z 1912/2012 03005KT P6SM FEW050